Погода Коринфна неделю

Леон, Никарагуа

21 - 27 февраля
  • 21февраля
    Сегодня
    +20°
    +36°
    Ясно и безоблачно
    ВремяПогодаТемператураВлажностьДавлениеВетер, м/сВероятность осадков
    00:00Ясно и безоблачно+26°C45 %755 мм5.8 м/с2 %
    03:00Ясно и безоблачно+24°C40 %754 мм5.3 м/с2 %
    06:00Ясно и безоблачно+23°C44 %754 мм0.5 м/с2 %
    09:00Ясно и безоблачно+29°C41 %756 мм2.4 м/с2 %
    12:00Ясно и безоблачно+35°C30 %754 мм2.6 м/с2 %
    15:00Ясно и безоблачно+35°C34 %752 мм3.1 м/с2 %
    18:00Ясно и безоблачно+31°C58 %753 мм1.2 м/с2 %
    21:00Ясно и безоблачно+28°C46 %755 мм3.0 м/с2 %
  • 22февраля
    Четверг
    +20°
    +35°
    Ясно и безоблачно
    ВремяПогодаТемператураВлажностьДавлениеВетер, м/сВероятность осадков
    00:00Ясно и безоблачно+25°C51 %755 мм3.3 м/с2 %
    03:00Ясно и безоблачно+22°C63 %754 мм2.3 м/с2 %
    06:00Ясно и безоблачно+20°C68 %755 мм0.0 м/с2 %
    09:00Ясно и безоблачно+26°C43 %756 мм1.6 м/с2 %
    12:00Ясно и безоблачно+33°C26 %753 мм2.0 м/с2 %
    15:00Ясно и безоблачно+35°C21 %750 мм2.9 м/с2 %
    18:00Ясно и безоблачно+30°C30 %751 мм4.4 м/с2 %
    21:00Ясно и безоблачно+26°C47 %753 мм4.2 м/с2 %
  • 23февраля
    Пятница
    +20°
    +34°
    Ясно и безоблачно
    ВремяПогодаТемператураВлажностьДавлениеВетер, м/сВероятность осадков
    00:00Ясно и безоблачно+22°C53 %753 мм3.5 м/с2 %
    03:00Ясно и безоблачно+22°C62 %752 мм3.1 м/с2 %
    06:00Ясно и безоблачно+20°C70 %753 мм0.0 м/с2 %
    09:00Ясно и безоблачно+27°C44 %754 мм1.5 м/с2 %
    12:00Ясно и безоблачно+33°C31 %752 мм1.7 м/с2 %
    15:00Ясно и безоблачно+33°C31 %750 мм3.1 м/с2 %
    18:00Ясно и безоблачно+28°C53 %751 мм2.1 м/с2 %
    21:00Ясно и безоблачно+25°C67 %753 мм0.8 м/с2 %
  • 24февраля
    Суббота
    +21°
    +35°
    Ясно и безоблачно
    ВремяПогодаТемператураВлажностьДавлениеВетер, м/сВероятность осадков
    00:00Ясно и безоблачно+23°C67 %753 мм1.1 м/с2 %
    03:00Ясно и безоблачно+22°C65 %752 мм2.0 м/с2 %
    06:00Ясно и безоблачно+21°C67 %754 мм0.0 м/с2 %
    09:00Небольшая облачность+28°C44 %755 мм1.6 м/с2 %
    12:00Ясно и безоблачно+34°C32 %754 мм1.9 м/с2 %
    15:00Ясно и безоблачно+34°C37 %752 мм3.1 м/с2 %
    18:00Ясно и безоблачно+31°C55 %753 мм1.0 м/с2 %
    21:00Ясно и безоблачно+27°C58 %755 мм2.2 м/с2 %
Мы используем cookies
Соглашаюсь